createdAt,value
2018-12-30T00:00:50.762Z,87.90
2018-12-30T00:03:20.242Z,88.10
2018-12-30T00:05:50.552Z,87.50
2018-12-30T00:08:20.260Z,87.90
2018-12-30T00:10:49.682Z,87.50
2018-12-30T00:13:19.180Z,87.50
2018-12-30T00:15:48.902Z,87.80
2018-12-30T00:18:18.628Z,87.80
2018-12-30T00:20:48.375Z,87.40
2018-12-30T00:23:18.374Z,87.50
2018-12-30T00:25:48.033Z,87.70
2018-12-30T00:28:17.618Z,87.30
2018-12-30T00:30:47.269Z,87.30
2018-12-30T00:33:16.642Z,87.10
2018-12-30T00:35:46.077Z,86.90
2018-12-30T00:38:15.765Z,86.70
2018-12-30T00:40:45.447Z,86.40
2018-12-30T00:43:14.880Z,86.70
2018-12-30T00:45:44.693Z,86.40
2018-12-30T00:48:14.114Z,85.90
2018-12-30T00:50:43.681Z,86.70
2018-12-30T00:53:13.280Z,86.40
2018-12-30T00:55:42.806Z,86.50
2018-12-30T00:58:12.823Z,86.20
2018-12-30T01:00:42.594Z,86.70
2018-12-30T01:03:12.045Z,86.80
2018-12-30T01:05:41.560Z,87.00
2018-12-30T01:08:11.236Z,86.60
2018-12-30T01:10:40.892Z,87.00
2018-12-30T01:13:10.359Z,87.20
2018-12-30T01:15:40.132Z,87.40
2018-12-30T01:18:09.666Z,87.40
2018-12-30T01:20:39.106Z,87.60
2018-12-30T01:23:08.520Z,87.70
2018-12-30T01:25:37.862Z,87.60
2018-12-30T01:28:07.356Z,87.60
2018-12-30T01:30:36.975Z,87.90
2018-12-30T01:33:06.572Z,87.80
2018-12-30T01:35:36.073Z,87.90
2018-12-30T01:38:06.859Z,88.00
2018-12-30T01:40:36.531Z,88.10
2018-12-30T01:43:05.972Z,88.80
2018-12-30T01:45:35.513Z,88.40
2018-12-30T01:48:04.976Z,88.10
2018-12-30T01:50:34.556Z,88.10
2018-12-30T01:53:04.093Z,88.20
2018-12-30T01:55:33.727Z,88.20
2018-12-30T01:58:03.080Z,88.20
2018-12-30T02:00:32.749Z,88.50
2018-12-30T02:03:02.339Z,88.80
2018-12-30T02:05:31.798Z,88.90
2018-12-30T02:08:01.239Z,89.00
2018-12-30T02:10:30.576Z,89.20
2018-12-30T02:13:00.314Z,88.80
2018-12-30T02:15:29.795Z,88.80
2018-12-30T02:17:59.447Z,89.50
2018-12-30T02:20:28.861Z,89.10
2018-12-30T02:22:58.300Z,89.50
2018-12-30T02:25:27.836Z,89.40
2018-12-30T02:27:57.649Z,89.40
2018-12-30T02:30:27.500Z,89.40
2018-12-30T02:32:57.167Z,89.30
2018-12-30T02:35:26.598Z,89.50
2018-12-30T02:37:56.579Z,89.70
2018-12-30T02:40:26.177Z,89.50
2018-12-30T02:42:55.690Z,89.30
2018-12-30T02:45:25.499Z,89.40
2018-12-30T02:47:54.860Z,89.30
2018-12-30T02:50:24.306Z,89.20
2018-12-30T02:52:53.803Z,89.20
2018-12-30T02:55:23.335Z,89.10
2018-12-30T02:57:52.940Z,89.20
2018-12-30T03:00:22.328Z,89.20
2018-12-30T03:02:52.301Z,89.20
2018-12-30T03:05:22.553Z,89.10
2018-12-30T03:07:52.113Z,89.00
2018-12-30T03:10:21.880Z,89.10
2018-12-30T03:12:51.241Z,89.20
2018-12-30T03:15:20.795Z,89.00
2018-12-30T03:17:50.570Z,89.10
2018-12-30T03:20:19.953Z,89.10
2018-12-30T03:22:49.490Z,89.20
2018-12-30T03:25:19.076Z,89.00
2018-12-30T03:27:48.532Z,88.80
2018-12-30T03:30:18.006Z,88.90
2018-12-30T03:32:47.629Z,89.10
2018-12-30T03:35:17.145Z,89.40
2018-12-30T03:37:46.659Z,89.50
2018-12-30T03:40:16.118Z,89.70
2018-12-30T03:42:45.793Z,89.80
2018-12-30T03:45:15.401Z,90.00
2018-12-30T03:47:44.784Z,90.10
2018-12-30T03:50:14.316Z,90.30
2018-12-30T03:52:44.134Z,90.30
2018-12-30T03:55:13.586Z,90.30
2018-12-30T03:57:43.113Z,90.30
2018-12-30T04:00:12.672Z,90.20
2018-12-30T04:02:42.221Z,90.10
2018-12-30T04:05:11.620Z,90.10
2018-12-30T04:07:41.203Z,90.20
2018-12-30T04:10:10.898Z,90.00
2018-12-30T04:12:40.341Z,90.30
2018-12-30T04:15:09.785Z,90.30
2018-12-30T04:17:39.560Z,90.50
2018-12-30T04:20:08.944Z,90.40
2018-12-30T04:22:38.453Z,90.60
2018-12-30T04:25:08.067Z,90.30
2018-12-30T04:27:37.577Z,90.30
2018-12-30T04:30:07.307Z,90.30
2018-12-30T04:32:36.741Z,90.20
2018-12-30T04:35:06.308Z,90.60
2018-12-30T04:37:37.508Z,90.80
2018-12-30T04:40:07.272Z,91.00
2018-12-30T04:42:36.727Z,90.90
2018-12-30T04:45:06.345Z,91.10
2018-12-30T04:47:35.942Z,90.80
2018-12-30T04:50:06.048Z,90.80
2018-12-30T04:52:35.419Z,90.80
2018-12-30T04:55:05.085Z,90.50
2018-12-30T04:57:34.666Z,90.50
2018-12-30T05:00:04.656Z,90.80
2018-12-30T05:02:34.133Z,90.70
2018-12-30T05:05:03.507Z,90.80
2018-12-30T05:07:32.860Z,90.70
2018-12-30T05:10:02.405Z,90.80
2018-12-30T05:12:31.873Z,91.10
2018-12-30T05:15:01.613Z,91.10
2018-12-30T05:17:31.181Z,91.00
2018-12-30T05:20:00.873Z,91.10
2018-12-30T05:22:34.011Z,91.30
2018-12-30T05:25:01.470Z,91.30
2018-12-30T05:27:31.137Z,91.30
2018-12-30T05:30:00.628Z,91.30
2018-12-30T05:32:30.156Z,91.20
2018-12-30T05:34:59.703Z,91.10
2018-12-30T05:37:29.362Z,91.10
2018-12-30T05:39:58.964Z,91.00
2018-12-30T05:42:28.423Z,91.10
2018-12-30T05:44:57.977Z,91.10
2018-12-30T05:47:28.958Z,91.20
2018-12-30T05:49:58.336Z,91.20
2018-12-30T05:52:27.789Z,91.10
2018-12-30T05:54:57.591Z,90.90
2018-12-30T05:57:27.269Z,90.80
2018-12-30T05:59:56.612Z,90.90
2018-12-30T06:02:25.991Z,90.90
2018-12-30T06:04:55.435Z,90.90
2018-12-30T06:07:24.881Z,90.90
2018-12-30T06:09:54.316Z,91.00
2018-12-30T06:12:23.734Z,91.00
2018-12-30T06:14:53.412Z,90.90
2018-12-30T06:17:22.792Z,91.00
2018-12-30T06:19:52.494Z,90.80
2018-12-30T06:22:22.041Z,90.80
2018-12-30T06:24:51.556Z,90.70
2018-12-30T06:27:20.925Z,90.80
2018-12-30T06:29:50.598Z,90.80
2018-12-30T06:32:20.276Z,90.80
2018-12-30T06:34:49.679Z,90.90
2018-12-30T06:37:19.135Z,90.80
2018-12-30T06:39:48.738Z,90.70
2018-12-30T06:42:18.417Z,90.70
2018-12-30T06:44:47.785Z,90.60
2018-12-30T06:47:17.305Z,90.70
2018-12-30T06:49:46.774Z,90.60
2018-12-30T06:52:16.452Z,90.60
2018-12-30T06:54:46.002Z,90.70
2018-12-30T06:57:15.427Z,90.60
2018-12-30T06:59:44.941Z,90.70
2018-12-30T07:02:14.615Z,90.70
2018-12-30T07:04:44.105Z,90.60
2018-12-30T07:07:13.816Z,90.60
2018-12-30T07:09:43.286Z,90.50
2018-12-30T07:12:12.766Z,90.50
2018-12-30T07:14:42.233Z,90.40
2018-12-30T07:17:11.697Z,90.70
2018-12-30T07:19:41.401Z,90.20
2018-12-30T07:22:10.905Z,90.40
2018-12-30T07:24:40.532Z,90.40
2018-12-30T07:27:10.057Z,90.60
2018-12-30T07:29:39.545Z,90.60
2018-12-30T07:32:09.148Z,90.70
2018-12-30T07:34:38.657Z,90.70
2018-12-30T07:37:08.164Z,90.70
2018-12-30T07:39:37.710Z,90.60
2018-12-30T07:42:07.316Z,90.60
2018-12-30T07:44:36.972Z,90.60
2018-12-30T07:47:09.046Z,90.60
2018-12-30T07:49:38.649Z,90.90
2018-12-30T07:52:08.286Z,90.90
2018-12-30T07:54:37.965Z,90.90
2018-12-30T07:57:07.508Z,91.10
2018-12-30T07:59:37.051Z,91.00
2018-12-30T08:02:06.667Z,90.90
2018-12-30T08:04:36.387Z,91.20
2018-12-30T08:09:49.848Z,91.30
2018-12-30T08:12:19.357Z,91.20
2018-12-30T08:14:49.008Z,91.10
2018-12-30T08:17:18.480Z,91.20
2018-12-30T08:19:48.101Z,91.20
2018-12-30T08:22:17.852Z,91.20
2018-12-30T08:24:47.382Z,91.20
2018-12-30T08:27:16.996Z,91.30
2018-12-30T08:29:46.650Z,91.30
2018-12-30T08:32:16.042Z,91.20
2018-12-30T08:34:45.584Z,91.20
2018-12-30T08:37:15.185Z,91.20
2018-12-30T08:39:44.662Z,91.10
2018-12-30T08:42:14.307Z,91.20
2018-12-30T08:44:43.685Z,91.20
2018-12-30T08:47:13.159Z,91.40
2018-12-30T08:49:43.801Z,91.70
2018-12-30T08:52:13.384Z,91.50
2018-12-30T08:54:42.891Z,91.50
2018-12-30T08:57:12.349Z,91.40
2018-12-30T08:59:41.964Z,91.30
2018-12-30T09:02:11.865Z,91.10
2018-12-30T09:04:41.345Z,91.10
2018-12-30T09:07:10.949Z,91.30
2018-12-30T09:09:40.490Z,91.30
2018-12-30T09:12:09.864Z,91.40
2018-12-30T09:14:39.330Z,91.30
2018-12-30T09:17:08.936Z,91.20
2018-12-30T09:19:38.397Z,91.30
2018-12-30T09:22:08.053Z,91.40
2018-12-30T09:24:37.745Z,91.30
2018-12-30T09:27:07.078Z,91.10
2018-12-30T09:29:36.627Z,90.80
2018-12-30T09:32:06.005Z,90.90
2018-12-30T09:34:35.536Z,91.20
2018-12-30T09:37:05.243Z,90.60
2018-12-30T09:39:34.646Z,90.30
2018-12-30T09:42:04.137Z,90.40
2018-12-30T09:44:33.776Z,90.20
2018-12-30T09:47:03.231Z,89.80
2018-12-30T09:49:32.955Z,89.80
2018-12-30T09:52:02.380Z,89.80
2018-12-30T09:54:32.039Z,89.50
2018-12-30T09:57:01.710Z,89.80
2018-12-30T09:59:31.170Z,89.50
2018-12-30T10:02:00.733Z,89.80
2018-12-30T10:04:30.392Z,89.60
2018-12-30T10:07:00.094Z,89.40
2018-12-30T10:09:29.580Z,89.20
2018-12-30T10:11:59.284Z,89.00
2018-12-30T10:14:28.760Z,88.90
2018-12-30T10:16:58.314Z,89.00
2018-12-30T10:19:28.766Z,89.20
2018-12-30T10:21:58.280Z,89.20
2018-12-30T10:24:27.779Z,89.00
2018-12-30T10:26:57.227Z,88.70
2018-12-30T10:29:26.617Z,88.60
2018-12-30T10:31:56.556Z,88.10
2018-12-30T10:34:26.214Z,87.80
2018-12-30T10:36:55.594Z,87.80
2018-12-30T10:39:25.058Z,87.90
2018-12-30T10:41:54.652Z,87.60
2018-12-30T10:44:24.209Z,86.80
2018-12-30T10:46:54.147Z,86.90
2018-12-30T10:49:23.895Z,87.40
2018-12-30T10:51:53.366Z,86.60
2018-12-30T10:54:23.067Z,86.90
2018-12-30T10:56:52.494Z,87.30
2018-12-30T10:59:21.849Z,87.50
2018-12-30T11:01:51.580Z,87.50
2018-12-30T11:04:21.068Z,86.90
2018-12-30T11:06:50.565Z,86.90
2018-12-30T11:09:20.290Z,86.50
2018-12-30T11:11:49.684Z,87.20
2018-12-30T11:14:19.238Z,87.20
2018-12-30T11:16:48.593Z,87.10
2018-12-30T11:19:18.285Z,87.60
2018-12-30T11:21:47.786Z,87.30
2018-12-30T11:24:17.317Z,87.40
2018-12-30T11:26:46.806Z,87.50
2018-12-30T11:29:16.716Z,87.30
2018-12-30T11:31:46.149Z,86.90
2018-12-30T11:34:15.744Z,86.70
2018-12-30T11:36:45.923Z,86.10
2018-12-30T11:39:15.457Z,85.90
2018-12-30T11:41:45.258Z,86.30
2018-12-30T11:44:15.034Z,85.90
2018-12-30T11:46:44.417Z,86.20
2018-12-30T11:49:13.973Z,85.80
2018-12-30T11:51:43.418Z,86.20
2018-12-30T11:54:16.683Z,86.60
2018-12-30T11:56:44.740Z,86.10
2018-12-30T11:59:14.367Z,86.30
2018-12-30T12:01:43.744Z,86.70
2018-12-30T12:04:13.156Z,86.50
2018-12-30T12:06:42.560Z,86.40
2018-12-30T12:09:12.301Z,86.50
2018-12-30T12:11:41.802Z,86.20
2018-12-30T12:14:11.245Z,86.60
2018-12-30T12:16:41.168Z,86.50
2018-12-30T12:19:10.809Z,86.40
2018-12-30T12:21:40.320Z,86.70
2018-12-30T12:24:09.996Z,86.90
2018-12-30T12:26:39.652Z,86.70
2018-12-30T12:29:09.211Z,86.80
2018-12-30T12:31:38.629Z,86.40
2018-12-30T12:34:08.026Z,86.50
2018-12-30T12:36:37.663Z,86.60
2018-12-30T12:39:08.137Z,86.60
2018-12-30T12:41:37.637Z,86.80
2018-12-30T12:44:07.032Z,87.10
2018-12-30T12:46:36.579Z,86.90
2018-12-30T12:49:06.082Z,87.30
2018-12-30T12:51:35.474Z,87.20
2018-12-30T12:54:05.172Z,86.90
2018-12-30T12:56:35.062Z,87.10
2018-12-30T12:59:04.711Z,87.20
2018-12-30T13:01:34.504Z,87.40
2018-12-30T13:04:04.012Z,87.30
2018-12-30T13:06:33.888Z,87.10
2018-12-30T13:09:03.840Z,87.10
2018-12-30T13:11:33.506Z,87.30
2018-12-30T13:14:02.879Z,87.20
2018-12-30T13:16:32.578Z,88.10
2018-12-30T13:19:02.011Z,87.60
2018-12-30T13:21:31.593Z,86.90
2018-12-30T13:24:01.063Z,87.20
2018-12-30T13:26:30.598Z,87.20
2018-12-30T13:29:00.400Z,86.70
2018-12-30T13:31:29.968Z,86.80
2018-12-30T13:33:59.364Z,86.60
2018-12-30T13:36:28.972Z,86.20
2018-12-30T13:38:58.504Z,86.40
2018-12-30T13:41:28.041Z,86.30
2018-12-30T13:43:57.609Z,86.00
2018-12-30T13:46:27.241Z,86.30
2018-12-30T13:48:56.909Z,86.60
2018-12-30T13:51:26.301Z,86.60
2018-12-30T13:53:55.891Z,86.60
2018-12-30T13:56:25.563Z,86.70
2018-12-30T13:58:55.784Z,86.60
2018-12-30T14:01:25.580Z,86.60
2018-12-30T14:03:55.038Z,86.60
2018-12-30T14:06:24.638Z,86.30
2018-12-30T14:08:53.998Z,86.60
2018-12-30T14:11:24.752Z,86.90
2018-12-30T14:13:54.466Z,86.20
2018-12-30T14:16:24.426Z,85.90
2018-12-30T14:18:54.107Z,85.90
2018-12-30T14:21:23.625Z,86.20
2018-12-30T14:23:53.131Z,86.40
2018-12-30T14:26:23.006Z,86.30
2018-12-30T14:28:52.578Z,86.50
2018-12-30T14:31:22.174Z,86.30
2018-12-30T14:33:51.530Z,86.20
2018-12-30T14:36:21.039Z,86.10
2018-12-30T14:38:50.521Z,85.60
2018-12-30T14:41:20.078Z,85.60
2018-12-30T14:43:49.566Z,85.80
2018-12-30T14:46:18.985Z,85.90
2018-12-30T14:48:48.448Z,85.40
2018-12-30T14:51:18.150Z,84.90
2018-12-30T14:53:47.821Z,84.40
2018-12-30T14:56:17.285Z,85.40
2018-12-30T14:58:46.851Z,85.60
2018-12-30T15:01:16.510Z,85.30
2018-12-30T15:03:46.212Z,85.30
2018-12-30T15:06:15.828Z,85.20
2018-12-30T15:08:45.357Z,85.00
2018-12-30T15:11:14.850Z,85.20
2018-12-30T15:13:46.055Z,85.20
2018-12-30T15:16:15.458Z,85.20
2018-12-30T15:18:45.098Z,85.40
2018-12-30T15:21:14.641Z,85.60
2018-12-30T15:23:44.384Z,85.60
2018-12-30T15:26:13.757Z,85.90
2018-12-30T15:28:43.249Z,86.10
2018-12-30T15:31:12.593Z,86.20
2018-12-30T15:33:42.395Z,86.30
2018-12-30T15:36:12.107Z,86.20
2018-12-30T15:38:41.451Z,86.30
2018-12-30T15:41:11.286Z,86.30
2018-12-30T15:43:40.769Z,86.60
2018-12-30T15:46:10.285Z,86.70
2018-12-30T15:48:39.857Z,86.60
2018-12-30T15:51:09.264Z,87.50
2018-12-30T15:53:39.502Z,86.80
2018-12-30T15:56:09.029Z,86.70
2018-12-30T15:58:38.692Z,86.70
2018-12-30T16:01:08.197Z,86.50
2018-12-30T16:03:37.780Z,86.30
2018-12-30T16:06:07.672Z,86.00
2018-12-30T16:08:37.057Z,85.80
2018-12-30T16:11:06.581Z,86.00
2018-12-30T16:13:36.221Z,86.60
2018-12-30T16:16:05.888Z,86.10
2018-12-30T16:18:35.364Z,86.30
2018-12-30T16:21:04.755Z,86.20
2018-12-30T16:23:34.310Z,86.30
2018-12-30T16:26:03.915Z,86.70
2018-12-30T16:28:33.452Z,86.80
2018-12-30T16:31:03.150Z,86.30
2018-12-30T16:33:32.673Z,86.50
2018-12-30T16:36:02.279Z,86.80
2018-12-30T16:38:31.785Z,86.90
2018-12-30T16:41:02.295Z,86.50
2018-12-30T16:43:33.635Z,86.60
2018-12-30T16:46:03.149Z,86.50
2018-12-30T16:48:32.805Z,86.60
2018-12-30T16:51:02.153Z,86.60
2018-12-30T16:53:31.739Z,86.40
2018-12-30T16:56:01.104Z,87.00
2018-12-30T16:58:30.824Z,86.60
2018-12-30T17:01:00.189Z,86.70
2018-12-30T17:03:29.717Z,87.60
2018-12-30T17:05:59.275Z,87.00
2018-12-30T17:08:28.661Z,86.70
2018-12-30T17:10:58.228Z,86.80
2018-12-30T17:13:27.801Z,86.60
2018-12-30T17:15:57.442Z,87.00
2018-12-30T17:18:26.963Z,87.10
2018-12-30T17:20:56.478Z,86.90
2018-12-30T17:23:25.953Z,86.80
2018-12-30T17:25:55.354Z,87.30
2018-12-30T17:28:24.958Z,87.50
2018-12-30T17:30:54.528Z,87.30
2018-12-30T17:33:24.272Z,87.00
2018-12-30T17:35:53.853Z,87.10
2018-12-30T17:38:23.683Z,86.80
2018-12-30T17:41:01.346Z,86.80
2018-12-30T17:43:24.561Z,86.80
2018-12-30T17:45:54.237Z,87.10
2018-12-30T17:48:23.784Z,87.00
2018-12-30T17:50:53.365Z,87.50
2018-12-30T17:53:23.400Z,87.00
2018-12-30T17:55:52.927Z,87.10
2018-12-30T17:58:22.482Z,87.30
2018-12-30T18:00:52.113Z,87.60
2018-12-30T18:03:21.505Z,87.80
2018-12-30T18:05:51.017Z,88.00
2018-12-30T18:08:20.435Z,88.10
2018-12-30T18:10:50.246Z,88.00
2018-12-30T18:13:19.813Z,88.00
2018-12-30T18:15:49.297Z,88.00
2018-12-30T18:18:18.819Z,88.10
2018-12-30T18:20:48.383Z,88.10
2018-12-30T18:23:19.464Z,88.30
2018-12-30T18:25:48.864Z,88.30
2018-12-30T18:28:18.342Z,88.20
2018-12-30T18:30:47.847Z,88.00
2018-12-30T18:33:17.319Z,88.30
2018-12-30T18:35:46.678Z,88.40
2018-12-30T18:38:16.186Z,88.30
2018-12-30T18:40:45.643Z,88.20
2018-12-30T18:43:15.287Z,88.30
2018-12-30T18:45:44.648Z,88.50
2018-12-30T18:48:14.267Z,88.60
2018-12-30T18:50:43.757Z,88.70
2018-12-30T18:53:13.333Z,88.80
2018-12-30T18:55:42.872Z,89.20
2018-12-30T18:58:12.656Z,89.70
2018-12-30T19:00:42.038Z,89.50
2018-12-30T19:03:11.505Z,89.80
2018-12-30T19:05:41.047Z,89.70
2018-12-30T19:08:10.758Z,89.80
2018-12-30T19:10:40.233Z,89.70
2018-12-30T19:13:09.794Z,89.90
2018-12-30T19:15:39.208Z,89.80
2018-12-30T19:18:08.902Z,89.50
2018-12-30T19:20:40.123Z,89.90
2018-12-30T19:23:10.010Z,90.10
2018-12-30T19:25:39.517Z,90.00
2018-12-30T19:28:09.086Z,90.10
2018-12-30T19:30:38.576Z,90.10
2018-12-30T19:33:08.238Z,90.20
2018-12-30T19:35:37.664Z,90.20
2018-12-30T19:38:07.007Z,90.20
2018-12-30T19:40:36.572Z,90.20
2018-12-30T19:43:06.196Z,90.20
2018-12-30T19:45:35.772Z,90.10
2018-12-30T19:48:05.299Z,90.10
2018-12-30T19:50:34.842Z,90.00
2018-12-30T19:53:04.731Z,90.10
2018-12-30T19:55:34.228Z,90.20
2018-12-30T19:58:03.745Z,90.30
2018-12-30T20:00:33.134Z,90.30
2018-12-30T20:03:02.577Z,90.40
2018-12-30T20:05:32.077Z,90.30
2018-12-30T20:08:01.569Z,90.30
2018-12-30T20:10:31.101Z,90.00
2018-12-30T20:13:00.918Z,90.30
2018-12-30T20:15:30.593Z,90.60
2018-12-30T20:18:00.085Z,90.60
2018-12-30T20:20:29.565Z,90.70
2018-12-30T20:22:59.108Z,90.80
2018-12-30T20:25:28.576Z,90.90
2018-12-30T20:27:57.962Z,90.80
2018-12-30T20:30:27.688Z,90.80
2018-12-30T20:32:57.104Z,90.70
2018-12-30T20:35:26.605Z,90.70
2018-12-30T20:37:56.382Z,90.70
2018-12-30T20:40:25.856Z,90.70
2018-12-30T20:42:55.346Z,90.70
2018-12-30T20:45:25.058Z,90.70
2018-12-30T20:47:54.711Z,90.60
2018-12-30T20:50:24.068Z,90.70
2018-12-30T20:52:53.483Z,90.70
2018-12-30T20:55:22.958Z,90.80
2018-12-30T20:57:52.771Z,90.90
2018-12-30T21:00:22.239Z,90.80
2018-12-30T21:02:51.673Z,90.70
2018-12-30T21:05:21.237Z,90.80
2018-12-30T21:07:50.847Z,90.80
2018-12-30T21:10:20.298Z,90.90
2018-12-30T21:12:49.773Z,90.90
2018-12-30T21:15:19.370Z,90.90
2018-12-30T21:17:48.998Z,90.90
2018-12-30T21:20:18.380Z,90.90
2018-12-30T21:22:47.936Z,90.90
2018-12-30T21:25:17.514Z,90.80
2018-12-30T21:27:47.035Z,90.60
2018-12-30T21:30:16.815Z,90.60
2018-12-30T21:32:46.261Z,90.60
2018-12-30T21:35:15.680Z,90.50
2018-12-30T21:37:45.282Z,90.50
2018-12-30T21:40:14.799Z,90.40
2018-12-30T21:42:44.395Z,90.30
2018-12-30T21:45:14.051Z,90.30
2018-12-30T21:47:43.436Z,90.20
2018-12-30T21:50:13.195Z,90.20
2018-12-30T21:52:42.514Z,90.10
2018-12-30T21:55:12.242Z,90.00
2018-12-30T21:57:41.882Z,90.00
2018-12-30T22:00:11.462Z,90.00
2018-12-30T22:02:40.954Z,90.10
2018-12-30T22:05:10.452Z,90.00
2018-12-30T22:07:40.035Z,90.10
2018-12-30T22:10:16.966Z,89.70
2018-12-30T22:12:41.234Z,89.70
2018-12-30T22:15:10.936Z,89.50
2018-12-30T22:17:40.537Z,89.50
2018-12-30T22:20:11.461Z,89.50
2018-12-30T22:22:40.939Z,89.40
2018-12-30T22:25:10.592Z,89.80
2018-12-30T22:27:40.269Z,90.00
2018-12-30T22:30:09.872Z,89.80
2018-12-30T22:32:39.486Z,89.70
2018-12-30T22:35:09.428Z,89.60
2018-12-30T22:37:38.837Z,90.00
2018-12-30T22:40:08.973Z,90.20
2018-12-30T22:42:39.319Z,90.20
2018-12-30T22:45:10.882Z,90.20
2018-12-30T22:47:40.306Z,90.20
2018-12-30T22:50:09.953Z,90.30
2018-12-30T22:52:39.842Z,90.30
2018-12-30T22:55:09.535Z,90.40
2018-12-30T22:57:39.432Z,90.40
2018-12-30T23:00:22.206Z,90.50
2018-12-30T23:02:51.904Z,90.60
2018-12-30T23:05:22.083Z,90.60
2018-12-30T23:07:51.939Z,90.70
2018-12-30T23:10:21.498Z,90.90
2018-12-30T23:12:51.080Z,90.70
2018-12-30T23:15:20.523Z,90.90
2018-12-30T23:17:49.970Z,91.00
2018-12-30T23:20:19.788Z,91.20
2018-12-30T23:22:49.258Z,91.30
2018-12-30T23:25:18.740Z,91.20
2018-12-30T23:27:48.304Z,91.40
2018-12-30T23:30:17.922Z,91.50
2018-12-30T23:32:47.863Z,91.50
2018-12-30T23:35:17.426Z,91.60
2018-12-30T23:37:46.930Z,91.70
2018-12-30T23:40:16.275Z,92.00
2018-12-30T23:42:45.817Z,92.00
2018-12-30T23:45:15.192Z,91.80
2018-12-30T23:47:44.680Z,91.80
2018-12-30T23:50:14.090Z,91.60
2018-12-30T23:52:43.531Z,91.50
2018-12-30T23:55:13.738Z,91.40
2018-12-30T23:57:44.904Z,91.40
